sensor_id;sensor_type;location;lat;lon;timestamp;P1;durP1;ratioP1;P2;durP2;ratioP2
17363;SDS011;8799;43.594;13.526;2022-11-18T00:00:25;9.70;;;5.93;;
17363;SDS011;8799;43.594;13.526;2022-11-18T00:02:54;11.27;;;7.07;;
17363;SDS011;8799;43.594;13.526;2022-11-18T00:05:22;10.73;;;6.10;;
17363;SDS011;8799;43.594;13.526;2022-11-18T00:07:49;9.47;;;5.80;;
17363;SDS011;8799;43.594;13.526;2022-11-18T00:10:17;9.93;;;5.90;;
17363;SDS011;8799;43.594;13.526;2022-11-18T00:12:45;10.03;;;5.50;;
17363;SDS011;8799;43.594;13.526;2022-11-18T00:15:31;9.93;;;5.37;;
17363;SDS011;8799;43.594;13.526;2022-11-18T00:18:00;8.73;;;5.00;;
17363;SDS011;8799;43.594;13.526;2022-11-18T00:20:28;9.73;;;6.20;;
17363;SDS011;8799;43.594;13.526;2022-11-18T00:22:56;10.43;;;6.03;;
17363;SDS011;8799;43.594;13.526;2022-11-18T00:25:24;9.53;;;5.27;;
17363;SDS011;8799;43.594;13.526;2022-11-18T00:27:53;8.17;;;5.40;;
17363;SDS011;8799;43.594;13.526;2022-11-18T00:30:21;10.43;;;5.43;;
17363;SDS011;8799;43.594;13.526;2022-11-18T00:32:50;7.77;;;5.03;;
17363;SDS011;8799;43.594;13.526;2022-11-18T00:35:18;11.03;;;5.90;;
17363;SDS011;8799;43.594;13.526;2022-11-18T00:37:46;9.93;;;4.90;;
17363;SDS011;8799;43.594;13.526;2022-11-18T00:40:13;9.43;;;5.20;;
17363;SDS011;8799;43.594;13.526;2022-11-18T00:42:42;11.90;;;5.27;;
17363;SDS011;8799;43.594;13.526;2022-11-18T00:45:20;8.63;;;4.80;;
17363;SDS011;8799;43.594;13.526;2022-11-18T00:47:50;10.40;;;5.27;;
17363;SDS011;8799;43.594;13.526;2022-11-18T00:50:19;9.13;;;4.43;;
17363;SDS011;8799;43.594;13.526;2022-11-18T00:52:48;9.40;;;4.87;;
17363;SDS011;8799;43.594;13.526;2022-11-18T00:55:16;8.00;;;4.97;;
17363;SDS011;8799;43.594;13.526;2022-11-18T00:57:44;9.50;;;4.43;;
17363;SDS011;8799;43.594;13.526;2022-11-18T01:00:12;7.23;;;4.37;;
17363;SDS011;8799;43.594;13.526;2022-11-18T01:02:40;7.53;;;4.03;;
17363;SDS011;8799;43.594;13.526;2022-11-18T01:05:11;7.37;;;4.37;;
17363;SDS011;8799;43.594;13.526;2022-11-18T01:07:38;13.83;;;4.10;;
17363;SDS011;8799;43.594;13.526;2022-11-18T01:10:06;8.20;;;4.20;;
17363;SDS011;8799;43.594;13.526;2022-11-18T01:12:35;8.27;;;4.17;;
17363;SDS011;8799;43.594;13.526;2022-11-18T01:15:19;7.63;;;4.20;;
17363;SDS011;8799;43.594;13.526;2022-11-18T01:17:47;8.53;;;3.97;;
17363;SDS011;8799;43.594;13.526;2022-11-18T01:20:17;6.17;;;3.90;;
17363;SDS011;8799;43.594;13.526;2022-11-18T01:22:46;6.63;;;3.57;;
17363;SDS011;8799;43.594;13.526;2022-11-18T01:25:14;6.10;;;3.73;;
17363;SDS011;8799;43.594;13.526;2022-11-18T01:27:42;6.77;;;3.83;;
17363;SDS011;8799;43.594;13.526;2022-11-18T01:30:11;7.57;;;3.90;;
17363;SDS011;8799;43.594;13.526;2022-11-18T01:32:41;7.87;;;3.67;;
17363;SDS011;8799;43.594;13.526;2022-11-18T01:35:09;6.27;;;3.93;;
17363;SDS011;8799;43.594;13.526;2022-11-18T01:37:39;5.57;;;3.30;;
17363;SDS011;8799;43.594;13.526;2022-11-18T01:40:07;7.63;;;3.53;;
17363;SDS011;8799;43.594;13.526;2022-11-18T01:42:36;5.60;;;3.47;;
17363;SDS011;8799;43.594;13.526;2022-11-18T01:45:06;8.20;;;3.40;;
17363;SDS011;8799;43.594;13.526;2022-11-18T01:47:46;7.77;;;3.37;;
17363;SDS011;8799;43.594;13.526;2022-11-18T01:50:15;8.30;;;3.97;;
17363;SDS011;8799;43.594;13.526;2022-11-18T01:52:48;6.53;;;3.87;;
17363;SDS011;8799;43.594;13.526;2022-11-18T01:55:17;9.83;;;3.27;;
17363;SDS011;8799;43.594;13.526;2022-11-18T01:57:49;6.93;;;3.63;;
17363;SDS011;8799;43.594;13.526;2022-11-18T02:00:23;6.10;;;3.10;;
17363;SDS011;8799;43.594;13.526;2022-11-18T02:02:51;7.50;;;3.57;;
17363;SDS011;8799;43.594;13.526;2022-11-18T02:05:20;5.10;;;3.00;;
17363;SDS011;8799;43.594;13.526;2022-11-18T02:07:51;7.07;;;3.50;;
17363;SDS011;8799;43.594;13.526;2022-11-18T02:10:21;5.67;;;3.43;;
17363;SDS011;8799;43.594;13.526;2022-11-18T02:12:50;7.87;;;3.50;;
17363;SDS011;8799;43.594;13.526;2022-11-18T02:15:22;5.00;;;3.03;;
17363;SDS011;8799;43.594;13.526;2022-11-18T02:17:56;5.53;;;3.10;;
17363;SDS011;8799;43.594;13.526;2022-11-18T02:20:33;7.47;;;3.63;;
17363;SDS011;8799;43.594;13.526;2022-11-18T02:26:36;5.53;;;3.10;;
17363;SDS011;8799;43.594;13.526;2022-11-18T02:29:36;4.43;;;2.63;;
17363;SDS011;8799;43.594;13.526;2022-11-18T02:32:10;4.03;;;2.67;;
17363;SDS011;8799;43.594;13.526;2022-11-18T02:34:45;4.57;;;2.93;;
17363;SDS011;8799;43.594;13.526;2022-11-18T02:37:16;4.37;;;2.73;;
17363;SDS011;8799;43.594;13.526;2022-11-18T02:39:51;4.93;;;2.90;;
17363;SDS011;8799;43.594;13.526;2022-11-18T02:42:22;7.03;;;3.23;;
17363;SDS011;8799;43.594;13.526;2022-11-18T02:44:54;5.33;;;2.97;;
17363;SDS011;8799;43.594;13.526;2022-11-18T02:47:26;7.23;;;2.80;;
17363;SDS011;8799;43.594;13.526;2022-11-18T02:49:56;5.87;;;2.80;;
17363;SDS011;8799;43.594;13.526;2022-11-18T02:52:26;4.90;;;3.23;;
17363;SDS011;8799;43.594;13.526;2022-11-18T02:54:56;6.30;;;2.80;;
17363;SDS011;8799;43.594;13.526;2022-11-18T02:57:26;5.90;;;3.10;;
17363;SDS011;8799;43.594;13.526;2022-11-18T02:59:57;6.67;;;3.10;;
17363;SDS011;8799;43.594;13.526;2022-11-18T03:02:26;7.23;;;3.10;;
17363;SDS011;8799;43.594;13.526;2022-11-18T03:04:55;5.17;;;2.87;;
17363;SDS011;8799;43.594;13.526;2022-11-18T03:07:26;6.33;;;3.00;;
17363;SDS011;8799;43.594;13.526;2022-11-18T03:09:57;4.13;;;3.03;;
17363;SDS011;8799;43.594;13.526;2022-11-18T03:12:28;5.27;;;2.70;;
17363;SDS011;8799;43.594;13.526;2022-11-18T03:15:05;6.50;;;3.20;;
17363;SDS011;8799;43.594;13.526;2022-11-18T03:17:44;5.13;;;2.60;;
17363;SDS011;8799;43.594;13.526;2022-11-18T03:20:21;5.33;;;2.73;;
17363;SDS011;8799;43.594;13.526;2022-11-18T03:22:54;3.80;;;2.40;;
17363;SDS011;8799;43.594;13.526;2022-11-18T03:25:27;6.23;;;2.90;;
17363;SDS011;8799;43.594;13.526;2022-11-18T03:28:02;4.37;;;3.00;;
17363;SDS011;8799;43.594;13.526;2022-11-18T03:30:37;5.30;;;2.87;;
17363;SDS011;8799;43.594;13.526;2022-11-18T03:33:09;4.17;;;2.63;;
17363;SDS011;8799;43.594;13.526;2022-11-18T03:35:41;4.30;;;2.50;;
17363;SDS011;8799;43.594;13.526;2022-11-18T03:38:14;3.80;;;2.30;;
17363;SDS011;8799;43.594;13.526;2022-11-18T03:40:45;4.83;;;2.33;;
17363;SDS011;8799;43.594;13.526;2022-11-18T03:43:16;4.57;;;2.67;;
17363;SDS011;8799;43.594;13.526;2022-11-18T03:45:49;5.23;;;2.67;;
17363;SDS011;8799;43.594;13.526;2022-11-18T03:48:21;5.20;;;2.70;;
17363;SDS011;8799;43.594;13.526;2022-11-18T03:50:54;5.27;;;2.63;;
17363;SDS011;8799;43.594;13.526;2022-11-18T03:53:26;3.40;;;2.37;;
17363;SDS011;8799;43.594;13.526;2022-11-18T03:56:00;4.03;;;2.67;;
17363;SDS011;8799;43.594;13.526;2022-11-18T03:58:33;3.83;;;2.40;;
17363;SDS011;8799;43.594;13.526;2022-11-18T04:01:10;3.50;;;2.40;;
17363;SDS011;8799;43.594;13.526;2022-11-18T04:03:43;5.03;;;2.60;;
17363;SDS011;8799;43.594;13.526;2022-11-18T04:06:13;5.93;;;2.77;;
17363;SDS011;8799;43.594;13.526;2022-11-18T04:08:48;3.07;;;2.27;;
17363;SDS011;8799;43.594;13.526;2022-11-18T04:11:22;4.20;;;2.60;;
17363;SDS011;8799;43.594;13.526;2022-11-18T04:14:10;4.40;;;2.40;;
17363;SDS011;8799;43.594;13.526;2022-11-18T04:16:42;4.90;;;2.50;;
17363;SDS011;8799;43.594;13.526;2022-11-18T04:19:11;5.80;;;2.60;;
17363;SDS011;8799;43.594;13.526;2022-11-18T04:21:39;6.20;;;2.63;;
17363;SDS011;8799;43.594;13.526;2022-11-18T04:24:07;4.77;;;2.37;;
17363;SDS011;8799;43.594;13.526;2022-11-18T04:26:35;4.50;;;2.53;;
17363;SDS011;8799;43.594;13.526;2022-11-18T04:29:03;2.73;;;1.90;;
17363;SDS011;8799;43.594;13.526;2022-11-18T04:31:32;7.83;;;2.47;;
17363;SDS011;8799;43.594;13.526;2022-11-18T04:34:01;4.03;;;2.33;;
17363;SDS011;8799;43.594;13.526;2022-11-18T04:36:29;4.43;;;2.13;;
17363;SDS011;8799;43.594;13.526;2022-11-18T04:38:57;3.70;;;2.50;;
17363;SDS011;8799;43.594;13.526;2022-11-18T04:41:25;4.70;;;2.37;;
17363;SDS011;8799;43.594;13.526;2022-11-18T04:44:06;4.40;;;2.30;;
17363;SDS011;8799;43.594;13.526;2022-11-18T04:46:37;4.13;;;2.43;;
17363;SDS011;8799;43.594;13.526;2022-11-18T04:49:09;3.13;;;2.03;;
17363;SDS011;8799;43.594;13.526;2022-11-18T04:51:38;3.97;;;2.30;;
17363;SDS011;8799;43.594;13.526;2022-11-18T04:54:07;3.80;;;2.03;;
17363;SDS011;8799;43.594;13.526;2022-11-18T04:56:34;7.63;;;2.70;;
17363;SDS011;8799;43.594;13.526;2022-11-18T04:59:03;3.57;;;2.27;;
17363;SDS011;8799;43.594;13.526;2022-11-18T05:01:32;4.10;;;2.30;;
17363;SDS011;8799;43.594;13.526;2022-11-18T05:04:01;5.10;;;2.60;;
17363;SDS011;8799;43.594;13.526;2022-11-18T05:06:31;5.67;;;2.30;;
17363;SDS011;8799;43.594;13.526;2022-11-18T05:09:00;5.87;;;2.63;;
17363;SDS011;8799;43.594;13.526;2022-11-18T05:11:29;3.53;;;1.73;;
17363;SDS011;8799;43.594;13.526;2022-11-18T05:14:15;3.50;;;2.37;;
17363;SDS011;8799;43.594;13.526;2022-11-18T05:16:43;6.53;;;2.40;;
17363;SDS011;8799;43.594;13.526;2022-11-18T05:19:11;5.00;;;2.10;;
17363;SDS011;8799;43.594;13.526;2022-11-18T05:21:41;5.07;;;1.97;;
17363;SDS011;8799;43.594;13.526;2022-11-18T05:24:09;3.17;;;2.00;;
17363;SDS011;8799;43.594;13.526;2022-11-18T05:26:37;3.37;;;2.07;;
17363;SDS011;8799;43.594;13.526;2022-11-18T05:29:05;5.30;;;2.17;;
17363;SDS011;8799;43.594;13.526;2022-11-18T05:31:33;4.00;;;2.40;;
17363;SDS011;8799;43.594;13.526;2022-11-18T05:34:02;2.77;;;1.60;;
17363;SDS011;8799;43.594;13.526;2022-11-18T05:36:30;4.17;;;1.97;;
17363;SDS011;8799;43.594;13.526;2022-11-18T05:39:00;3.77;;;1.97;;
17363;SDS011;8799;43.594;13.526;2022-11-18T05:41:28;2.93;;;1.93;;
17363;SDS011;8799;43.594;13.526;2022-11-18T05:44:13;4.13;;;2.30;;
17363;SDS011;8799;43.594;13.526;2022-11-18T05:46:41;4.40;;;2.20;;
17363;SDS011;8799;43.594;13.526;2022-11-18T05:49:09;4.60;;;2.00;;
17363;SDS011;8799;43.594;13.526;2022-11-18T05:51:37;2.07;;;1.53;;
17363;SDS011;8799;43.594;13.526;2022-11-18T05:54:08;3.97;;;1.83;;
17363;SDS011;8799;43.594;13.526;2022-11-18T05:56:38;5.07;;;2.27;;
17363;SDS011;8799;43.594;13.526;2022-11-18T05:59:07;3.43;;;2.03;;
17363;SDS011;8799;43.594;13.526;2022-11-18T06:01:37;2.87;;;1.93;;
17363;SDS011;8799;43.594;13.526;2022-11-18T06:04:10;2.53;;;1.90;;
17363;SDS011;8799;43.594;13.526;2022-11-18T06:06:41;2.80;;;1.67;;
17363;SDS011;8799;43.594;13.526;2022-11-18T06:09:12;3.07;;;2.20;;
17363;SDS011;8799;43.594;13.526;2022-11-18T06:11:44;3.30;;;2.03;;
17363;SDS011;8799;43.594;13.526;2022-11-18T06:14:15;3.00;;;1.90;;
17363;SDS011;8799;43.594;13.526;2022-11-18T06:16:47;3.07;;;2.20;;
17363;SDS011;8799;43.594;13.526;2022-11-18T06:19:18;1.97;;;1.50;;
17363;SDS011;8799;43.594;13.526;2022-11-18T06:21:46;3.80;;;1.60;;
17363;SDS011;8799;43.594;13.526;2022-11-18T06:24:16;8.37;;;1.67;;
17363;SDS011;8799;43.594;13.526;2022-11-18T06:26:45;3.80;;;1.87;;
17363;SDS011;8799;43.594;13.526;2022-11-18T06:29:15;2.37;;;1.37;;
17363;SDS011;8799;43.594;13.526;2022-11-18T06:31:45;4.55;;;2.20;;
17363;SDS011;8799;43.594;13.526;2022-11-18T06:34:13;7.40;;;1.30;;
17363;SDS011;8799;43.594;13.526;2022-11-18T06:36:41;4.50;;;2.10;;
17363;SDS011;8799;43.594;13.526;2022-11-18T06:39:09;4.05;;;1.90;;
17363;SDS011;8799;43.594;13.526;2022-11-18T06:41:39;3.97;;;1.97;;
17363;SDS011;8799;43.594;13.526;2022-11-18T06:44:10;3.73;;;1.97;;
17363;SDS011;8799;43.594;13.526;2022-11-18T06:46:37;6.03;;;1.73;;
17363;SDS011;8799;43.594;13.526;2022-11-18T06:49:23;5.27;;;2.30;;
17363;SDS011;8799;43.594;13.526;2022-11-18T06:51:51;2.87;;;1.83;;
17363;SDS011;8799;43.594;13.526;2022-11-18T06:54:20;2.77;;;1.70;;
17363;SDS011;8799;43.594;13.526;2022-11-18T06:56:49;5.83;;;1.90;;
17363;SDS011;8799;43.594;13.526;2022-11-18T06:59:18;1.90;;;1.70;;
17363;SDS011;8799;43.594;13.526;2022-11-18T07:01:48;7.53;;;2.23;;
17363;SDS011;8799;43.594;13.526;2022-11-18T07:04:17;2.67;;;1.70;;
17363;SDS011;8799;43.594;13.526;2022-11-18T07:06:48;3.37;;;1.70;;
17363;SDS011;8799;43.594;13.526;2022-11-18T07:09:17;2.37;;;2.00;;
17363;SDS011;8799;43.594;13.526;2022-11-18T07:11:45;6.53;;;1.73;;
17363;SDS011;8799;43.594;13.526;2022-11-18T07:14:14;3.60;;;1.60;;
17363;SDS011;8799;43.594;13.526;2022-11-18T07:16:43;2.77;;;1.83;;
17363;SDS011;8799;43.594;13.526;2022-11-18T07:19:11;2.00;;;1.60;;
17363;SDS011;8799;43.594;13.526;2022-11-18T07:21:41;3.03;;;2.03;;
17363;SDS011;8799;43.594;13.526;2022-11-18T07:24:10;3.37;;;1.60;;
17363;SDS011;8799;43.594;13.526;2022-11-18T07:26:40;3.43;;;1.60;;
17363;SDS011;8799;43.594;13.526;2022-11-18T07:29:09;6.80;;;1.70;;
17363;SDS011;8799;43.594;13.526;2022-11-18T07:31:40;4.27;;;1.77;;
17363;SDS011;8799;43.594;13.526;2022-11-18T07:34:07;4.77;;;1.87;;
17363;SDS011;8799;43.594;13.526;2022-11-18T07:36:35;3.73;;;1.77;;
17363;SDS011;8799;43.594;13.526;2022-11-18T07:39:04;1.70;;;1.58;;
17363;SDS011;8799;43.594;13.526;2022-11-18T07:41:38;3.77;;;1.80;;
17363;SDS011;8799;43.594;13.526;2022-11-18T07:44:06;3.83;;;1.73;;
17363;SDS011;8799;43.594;13.526;2022-11-18T07:46:37;8.57;;;1.73;;
17363;SDS011;8799;43.594;13.526;2022-11-18T07:49:07;1.50;;;1.33;;
17363;SDS011;8799;43.594;13.526;2022-11-18T07:51:37;1.93;;;1.50;;
17363;SDS011;8799;43.594;13.526;2022-11-18T07:54:08;2.43;;;1.43;;
17363;SDS011;8799;43.594;13.526;2022-11-18T07:56:36;2.10;;;1.40;;
17363;SDS011;8799;43.594;13.526;2022-11-18T07:59:06;2.47;;;1.70;;
17363;SDS011;8799;43.594;13.526;2022-11-18T08:01:34;2.10;;;1.50;;
17363;SDS011;8799;43.594;13.526;2022-11-18T08:04:03;1.93;;;1.27;;
17363;SDS011;8799;43.594;13.526;2022-11-18T08:06:33;3.07;;;1.37;;
17363;SDS011;8799;43.594;13.526;2022-11-18T08:09:02;1.90;;;1.37;;
17363;SDS011;8799;43.594;13.526;2022-11-18T08:11:34;1.57;;;1.10;;
17363;SDS011;8799;43.594;13.526;2022-11-18T08:14:02;2.27;;;1.33;;
17363;SDS011;8799;43.594;13.526;2022-11-18T08:19:05;3.23;;;1.50;;
17363;SDS011;8799;43.594;13.526;2022-11-18T08:21:35;4.90;;;1.77;;
17363;SDS011;8799;43.594;13.526;2022-11-18T08:24:04;4.00;;;1.17;;
17363;SDS011;8799;43.594;13.526;2022-11-18T08:26:32;2.97;;;1.00;;
17363;SDS011;8799;43.594;13.526;2022-11-18T08:28:59;1.50;;;1.23;;
17363;SDS011;8799;43.594;13.526;2022-11-18T08:31:27;1.57;;;1.47;;
17363;SDS011;8799;43.594;13.526;2022-11-18T08:33:56;3.70;;;1.17;;
17363;SDS011;8799;43.594;13.526;2022-11-18T08:36:26;5.20;;;1.30;;
17363;SDS011;8799;43.594;13.526;2022-11-18T08:38:56;1.63;;;1.30;;
17363;SDS011;8799;43.594;13.526;2022-11-18T08:41:26;1.80;;;1.27;;
17363;SDS011;8799;43.594;13.526;2022-11-18T08:43:57;1.80;;;1.23;;
17363;SDS011;8799;43.594;13.526;2022-11-18T08:46:25;2.00;;;1.07;;
17363;SDS011;8799;43.594;13.526;2022-11-18T08:48:55;2.17;;;1.17;;
17363;SDS011;8799;43.594;13.526;2022-11-18T08:51:23;1.90;;;1.30;;
17363;SDS011;8799;43.594;13.526;2022-11-18T08:53:52;1.30;;;1.20;;
17363;SDS011;8799;43.594;13.526;2022-11-18T08:56:22;2.80;;;1.40;;
17363;SDS011;8799;43.594;13.526;2022-11-18T08:58:50;1.23;;;1.10;;
17363;SDS011;8799;43.594;13.526;2022-11-18T09:01:18;2.57;;;1.50;;
17363;SDS011;8799;43.594;13.526;2022-11-18T09:03:46;2.17;;;1.53;;
17363;SDS011;8799;43.594;13.526;2022-11-18T09:06:15;2.28;;;1.50;;
17363;SDS011;8799;43.594;13.526;2022-11-18T09:08:44;1.33;;;1.20;;
17363;SDS011;8799;43.594;13.526;2022-11-18T09:11:13;2.47;;;1.40;;
17363;SDS011;8799;43.594;13.526;2022-11-18T09:13:44;4.07;;;2.08;;
17363;SDS011;8799;43.594;13.526;2022-11-18T09:16:12;1.90;;;1.50;;
17363;SDS011;8799;43.594;13.526;2022-11-18T09:18:40;5.27;;;2.07;;
17363;SDS011;8799;43.594;13.526;2022-11-18T09:21:09;3.63;;;1.75;;
17363;SDS011;8799;43.594;13.526;2022-11-18T09:23:37;2.87;;;1.57;;
17363;SDS011;8799;43.594;13.526;2022-11-18T09:26:06;4.00;;;1.93;;
17363;SDS011;8799;43.594;13.526;2022-11-18T09:28:36;5.10;;;1.97;;
17363;SDS011;8799;43.594;13.526;2022-11-18T09:31:08;4.93;;;1.93;;
17363;SDS011;8799;43.594;13.526;2022-11-18T09:33:37;4.20;;;1.77;;
17363;SDS011;8799;43.594;13.526;2022-11-18T09:36:05;4.53;;;2.10;;
17363;SDS011;8799;43.594;13.526;2022-11-18T09:38:38;3.10;;;1.97;;
17363;SDS011;8799;43.594;13.526;2022-11-18T09:41:10;5.65;;;2.58;;
17363;SDS011;8799;43.594;13.526;2022-11-18T09:44:00;6.00;;;2.10;;
17363;SDS011;8799;43.594;13.526;2022-11-18T09:46:40;4.57;;;2.00;;
17363;SDS011;8799;43.594;13.526;2022-11-18T09:49:19;4.90;;;2.47;;
17363;SDS011;8799;43.594;13.526;2022-11-18T09:51:54;5.23;;;2.03;;
17363;SDS011;8799;43.594;13.526;2022-11-18T09:54:23;5.93;;;2.60;;
17363;SDS011;8799;43.594;13.526;2022-11-18T09:56:54;5.33;;;2.27;;
17363;SDS011;8799;43.594;13.526;2022-11-18T09:59:23;4.77;;;2.50;;
17363;SDS011;8799;43.594;13.526;2022-11-18T10:01:55;4.30;;;2.17;;
17363;SDS011;8799;43.594;13.526;2022-11-18T10:04:28;6.13;;;2.60;;
17363;SDS011;8799;43.594;13.526;2022-11-18T10:06:56;4.37;;;2.43;;
17363;SDS011;8799;43.594;13.526;2022-11-18T10:09:26;4.13;;;2.10;;
17363;SDS011;8799;43.594;13.526;2022-11-18T10:12:01;3.73;;;2.20;;
17363;SDS011;8799;43.594;13.526;2022-11-18T10:14:46;4.20;;;2.33;;
17363;SDS011;8799;43.594;13.526;2022-11-18T10:17:29;5.37;;;2.60;;
17363;SDS011;8799;43.594;13.526;2022-11-18T10:20:10;6.70;;;2.90;;
17363;SDS011;8799;43.594;13.526;2022-11-18T10:22:47;6.47;;;2.57;;
17363;SDS011;8799;43.594;13.526;2022-11-18T10:25:18;5.77;;;2.87;;
17363;SDS011;8799;43.594;13.526;2022-11-18T10:27:46;8.70;;;3.00;;
17363;SDS011;8799;43.594;13.526;2022-11-18T10:30:16;6.17;;;2.60;;
17363;SDS011;8799;43.594;13.526;2022-11-18T10:32:57;5.60;;;2.87;;
17363;SDS011;8799;43.594;13.526;2022-11-18T10:35:27;4.73;;;2.50;;
17363;SDS011;8799;43.594;13.526;2022-11-18T10:38:00;10.30;;;3.17;;
17363;SDS011;8799;43.594;13.526;2022-11-18T10:40:29;6.57;;;2.87;;
17363;SDS011;8799;43.594;13.526;2022-11-18T10:42:59;6.27;;;2.90;;
17363;SDS011;8799;43.594;13.526;2022-11-18T10:45:28;4.97;;;2.77;;
17363;SDS011;8799;43.594;13.526;2022-11-18T10:48:05;5.10;;;2.53;;
17363;SDS011;8799;43.594;13.526;2022-11-18T10:50:35;7.10;;;2.73;;
17363;SDS011;8799;43.594;13.526;2022-11-18T10:53:05;5.63;;;2.80;;
17363;SDS011;8799;43.594;13.526;2022-11-18T10:55:56;5.83;;;3.17;;
17363;SDS011;8799;43.594;13.526;2022-11-18T10:58:25;5.47;;;2.30;;
17363;SDS011;8799;43.594;13.526;2022-11-18T11:01:02;4.37;;;2.50;;
17363;SDS011;8799;43.594;13.526;2022-11-18T11:03:33;7.13;;;3.23;;
17363;SDS011;8799;43.594;13.526;2022-11-18T11:06:27;7.83;;;3.27;;
17363;SDS011;8799;43.594;13.526;2022-11-18T11:09:00;7.63;;;3.07;;
17363;SDS011;8799;43.594;13.526;2022-11-18T11:11:31;6.50;;;3.17;;
17363;SDS011;8799;43.594;13.526;2022-11-18T11:14:12;5.53;;;2.80;;
17363;SDS011;8799;43.594;13.526;2022-11-18T11:16:47;6.67;;;3.03;;
17363;SDS011;8799;43.594;13.526;2022-11-18T11:19:24;4.53;;;2.47;;
17363;SDS011;8799;43.594;13.526;2022-11-18T11:21:55;5.93;;;2.77;;
17363;SDS011;8799;43.594;13.526;2022-11-18T11:24:24;8.27;;;3.30;;
17363;SDS011;8799;43.594;13.526;2022-11-18T11:26:56;6.97;;;2.97;;
17363;SDS011;8799;43.594;13.526;2022-11-18T11:29:46;3.97;;;2.53;;
17363;SDS011;8799;43.594;13.526;2022-11-18T11:32:29;7.73;;;3.03;;
17363;SDS011;8799;43.594;13.526;2022-11-18T11:35:09;5.03;;;2.70;;
17363;SDS011;8799;43.594;13.526;2022-11-18T11:37:46;6.80;;;2.70;;
17363;SDS011;8799;43.594;13.526;2022-11-18T11:40:23;7.80;;;2.93;;
17363;SDS011;8799;43.594;13.526;2022-11-18T11:43:00;6.80;;;2.60;;
17363;SDS011;8799;43.594;13.526;2022-11-18T11:45:56;5.80;;;3.13;;
17363;SDS011;8799;43.594;13.526;2022-11-18T11:48:38;5.20;;;2.47;;
17363;SDS011;8799;43.594;13.526;2022-11-18T11:51:18;5.00;;;2.50;;
17363;SDS011;8799;43.594;13.526;2022-11-18T11:53:57;6.37;;;2.70;;
17363;SDS011;8799;43.594;13.526;2022-11-18T11:56:46;7.10;;;2.73;;
17363;SDS011;8799;43.594;13.526;2022-11-18T11:59:26;7.27;;;3.20;;
17363;SDS011;8799;43.594;13.526;2022-11-18T12:02:02;6.80;;;2.67;;
17363;SDS011;8799;43.594;13.526;2022-11-18T12:04:48;3.53;;;2.17;;
17363;SDS011;8799;43.594;13.526;2022-11-18T12:07:21;3.47;;;2.03;;
17363;SDS011;8799;43.594;13.526;2022-11-18T12:10:03;3.80;;;2.40;;
17363;SDS011;8799;43.594;13.526;2022-11-18T12:12:42;4.40;;;2.60;;
17363;SDS011;8799;43.594;13.526;2022-11-18T12:15:23;6.10;;;2.67;;
17363;SDS011;8799;43.594;13.526;2022-11-18T12:18:04;5.50;;;2.50;;
17363;SDS011;8799;43.594;13.526;2022-11-18T12:20:41;5.30;;;2.37;;
17363;SDS011;8799;43.594;13.526;2022-11-18T12:23:13;4.07;;;2.40;;
17363;SDS011;8799;43.594;13.526;2022-11-18T12:25:43;4.17;;;2.50;;
17363;SDS011;8799;43.594;13.526;2022-11-18T12:28:22;5.00;;;2.47;;
17363;SDS011;8799;43.594;13.526;2022-11-18T12:33:54;5.88;;;3.00;;
17363;SDS011;8799;43.594;13.526;2022-11-18T12:36:26;5.77;;;2.77;;
17363;SDS011;8799;43.594;13.526;2022-11-18T12:38:57;6.03;;;2.50;;
17363;SDS011;8799;43.594;13.526;2022-11-18T12:44:37;5.10;;;2.80;;
17363;SDS011;8799;43.594;13.526;2022-11-18T12:47:06;4.63;;;2.50;;
17363;SDS011;8799;43.594;13.526;2022-11-18T12:52:45;5.63;;;2.70;;
17363;SDS011;8799;43.594;13.526;2022-11-18T12:55:19;5.20;;;2.27;;
17363;SDS011;8799;43.594;13.526;2022-11-18T12:57:52;7.80;;;3.78;;
17363;SDS011;8799;43.594;13.526;2022-11-18T13:00:30;4.90;;;2.90;;
17363;SDS011;8799;43.594;13.526;2022-11-18T13:03:22;5.40;;;2.77;;
17363;SDS011;8799;43.594;13.526;2022-11-18T13:05:57;5.37;;;2.67;;
17363;SDS011;8799;43.594;13.526;2022-11-18T13:08:28;6.50;;;2.80;;
17363;SDS011;8799;43.594;13.526;2022-11-18T13:11:01;4.97;;;2.63;;
17363;SDS011;8799;43.594;13.526;2022-11-18T13:13:52;4.40;;;2.50;;
17363;SDS011;8799;43.594;13.526;2022-11-18T13:16:40;5.33;;;2.67;;
17363;SDS011;8799;43.594;13.526;2022-11-18T13:19:27;5.10;;;2.93;;
17363;SDS011;8799;43.594;13.526;2022-11-18T13:21:55;6.23;;;2.50;;
17363;SDS011;8799;43.594;13.526;2022-11-18T13:24:42;4.40;;;2.90;;
17363;SDS011;8799;43.594;13.526;2022-11-18T13:27:17;5.50;;;2.67;;
17363;SDS011;8799;43.594;13.526;2022-11-18T13:29:56;3.77;;;2.50;;
17363;SDS011;8799;43.594;13.526;2022-11-18T13:32:27;5.00;;;2.90;;
17363;SDS011;8799;43.594;13.526;2022-11-18T13:34:56;4.50;;;2.70;;
17363;SDS011;8799;43.594;13.526;2022-11-18T13:37:30;5.27;;;2.47;;
17363;SDS011;8799;43.594;13.526;2022-11-18T13:39:59;4.33;;;2.80;;
17363;SDS011;8799;43.594;13.526;2022-11-18T13:42:29;4.77;;;3.00;;
17363;SDS011;8799;43.594;13.526;2022-11-18T13:44:58;5.80;;;3.23;;
17363;SDS011;8799;43.594;13.526;2022-11-18T13:47:31;5.80;;;2.80;;
17363;SDS011;8799;43.594;13.526;2022-11-18T13:50:05;5.63;;;3.23;;
17363;SDS011;8799;43.594;13.526;2022-11-18T13:52:40;4.57;;;3.17;;
17363;SDS011;8799;43.594;13.526;2022-11-18T13:55:13;5.73;;;3.27;;
17363;SDS011;8799;43.594;13.526;2022-11-18T13:57:49;6.97;;;3.47;;
17363;SDS011;8799;43.594;13.526;2022-11-18T14:00:20;4.53;;;2.57;;
17363;SDS011;8799;43.594;13.526;2022-11-18T14:02:52;6.00;;;3.50;;
17363;SDS011;8799;43.594;13.526;2022-11-18T14:05:23;7.00;;;3.30;;
17363;SDS011;8799;43.594;13.526;2022-11-18T14:07:54;6.77;;;3.40;;
17363;SDS011;8799;43.594;13.526;2022-11-18T14:10:30;6.50;;;3.70;;
17363;SDS011;8799;43.594;13.526;2022-11-18T14:13:15;5.00;;;2.97;;
17363;SDS011;8799;43.594;13.526;2022-11-18T14:15:46;7.07;;;3.77;;
17363;SDS011;8799;43.594;13.526;2022-11-18T14:18:18;6.63;;;3.27;;
17363;SDS011;8799;43.594;13.526;2022-11-18T14:20:52;7.18;;;4.05;;
17363;SDS011;8799;43.594;13.526;2022-11-18T14:23:25;7.37;;;3.23;;
17363;SDS011;8799;43.594;13.526;2022-11-18T14:25:55;7.50;;;3.77;;
17363;SDS011;8799;43.594;13.526;2022-11-18T14:28:26;5.73;;;3.67;;
17363;SDS011;8799;43.594;13.526;2022-11-18T14:30:56;6.17;;;3.10;;
17363;SDS011;8799;43.594;13.526;2022-11-18T14:33:25;6.67;;;3.40;;
17363;SDS011;8799;43.594;13.526;2022-11-18T14:35:55;6.27;;;2.80;;
17363;SDS011;8799;43.594;13.526;2022-11-18T14:38:28;6.03;;;3.20;;
17363;SDS011;8799;43.594;13.526;2022-11-18T14:41:10;7.73;;;3.80;;
17363;SDS011;8799;43.594;13.526;2022-11-18T14:43:41;11.50;;;4.07;;
17363;SDS011;8799;43.594;13.526;2022-11-18T14:46:11;7.57;;;3.10;;
17363;SDS011;8799;43.594;13.526;2022-11-18T14:48:42;5.70;;;3.23;;
17363;SDS011;8799;43.594;13.526;2022-11-18T14:51:11;6.87;;;3.47;;
17363;SDS011;8799;43.594;13.526;2022-11-18T14:53:39;8.13;;;3.40;;
17363;SDS011;8799;43.594;13.526;2022-11-18T14:56:10;6.50;;;3.70;;
17363;SDS011;8799;43.594;13.526;2022-11-18T14:58:44;8.03;;;3.23;;
17363;SDS011;8799;43.594;13.526;2022-11-18T15:01:12;10.20;;;3.77;;
17363;SDS011;8799;43.594;13.526;2022-11-18T15:03:40;9.93;;;3.90;;
17363;SDS011;8799;43.594;13.526;2022-11-18T15:06:11;9.37;;;4.00;;
17363;SDS011;8799;43.594;13.526;2022-11-18T15:08:41;5.93;;;3.30;;
17363;SDS011;8799;43.594;13.526;2022-11-18T15:11:09;8.30;;;3.67;;
17363;SDS011;8799;43.594;13.526;2022-11-18T15:13:37;7.47;;;4.07;;
17363;SDS011;8799;43.594;13.526;2022-11-18T15:16:12;6.47;;;3.53;;
17363;SDS011;8799;43.594;13.526;2022-11-18T15:18:42;8.10;;;3.80;;
17363;SDS011;8799;43.594;13.526;2022-11-18T15:21:11;8.53;;;3.60;;
17363;SDS011;8799;43.594;13.526;2022-11-18T15:23:39;7.97;;;3.37;;
17363;SDS011;8799;43.594;13.526;2022-11-18T15:26:13;7.30;;;3.83;;
17363;SDS011;8799;43.594;13.526;2022-11-18T15:28:45;5.60;;;3.07;;
17363;SDS011;8799;43.594;13.526;2022-11-18T15:31:15;6.70;;;2.90;;